Time;durP1;ratioP1;P1;durP2;ratioP2;P2;SDS_P1;SDS_P2;PMS_P1;PMS_P2;Temp;Humidity;BMP_temperature;BMP_pressure;BME280_temperature;BME280_humidity;BME280_pressure;Samples;Min_cycle;Max_cycle;Signal;HPM_P1;HPM_P2
2024/02/08 00:00:37;;;;;;;;;;;;;;;7.06;100.00;95315.25;5104440;28;19939;-69
2024/02/08 00:03:07;;;;;;;;;;;;;;;7.05;100.00;95324.88;5103458;28;19941;-71
2024/02/08 00:05:33;;;;;;;;;;;;;;;7.04;100.00;95318.06;5105148;28;20221;-68
2024/02/08 00:07:59;;;;;;;;;;;;;;;7.06;100.00;95320.47;5104228;28;19948;-69
2024/02/08 00:10:25;;;;;;;;;;;;;;;7.06;100.00;95320.47;5104804;28;20013;-69
2024/02/08 00:12:51;;;;;;;;;;;;;;;7.06;100.00;95323.06;5104261;28;20161;-69
2024/02/08 00:15:17;;;;;;;;;;;;;;;7.08;100.00;95323.66;5104645;28;20010;-69
2024/02/08 00:17:43;;;;;;;;;;;;;;;7.07;100.00;95317.63;5104247;28;19931;-68
2024/02/08 00:20:09;;;;;;;;;;;;;;;7.07;100.00;95317.63;5104174;28;19952;-67
2024/02/08 00:22:35;;;;;;;;;;;;;;;7.08;100.00;95319.22;5104192;28;19956;-76
2024/02/08 00:25:01;;;;;;;;;;;;;;;7.09;100.00;95312.19;5104133;28;19944;-70
2024/02/08 00:27:26;;;;;;;;;;;;;;;7.08;100.00;95310.63;5104614;28;19943;-70
2024/02/08 00:29:52;;;;;;;;;;;;;;;7.08;100.00;95310.63;5104056;28;19969;-71
2024/02/08 00:32:19;;;;;;;;;;;;;;;7.08;100.00;95308.78;5104041;28;19939;-70
2024/02/08 00:34:45;;;;;;;;;;;;;;;7.09;100.00;95314.78;5104445;28;19936;-70
2024/02/08 00:37:10;;;;;;;;;;;;;;;7.10;100.00;95311.19;5104241;28;20121;-70
2024/02/08 00:39:42;;;;;;;;;;;;;;;7.11;100.00;95307.53;5103961;28;19934;-75
2024/02/08 00:42:11;;;;;;;;;;;;;;;7.11;100.00;95310.16;5103913;28;19939;-76
2024/02/08 00:44:37;;;;;;;;;;;;;;;7.13;100.00;95307.31;5104164;28;19938;-76
2024/02/08 00:47:05;;;;;;;;;;;;;;;7.13;100.00;95307.31;5103910;28;19937;-77
2024/02/08 00:49:31;;;;;;;;;;;;;;;7.14;100.00;95301.09;5103860;28;19937;-76
2024/02/08 00:51:56;;;;;;;;;;;;;;;7.14;100.00;95301.91;5106138;28;20006;-76
2024/02/08 00:54:24;;;;;;;;;;;;;;;7.16;100.00;95297.25;5108448;28;19935;-76
2024/02/08 00:56:49;;;;;;;;;;;;;;;7.16;100.00;95301.66;5090212;28;19965;-73
2024/02/08 00:59:15;;;;;;;;;;;;;;;7.15;100.00;95294.88;5107874;28;20123;-65
2024/02/08 01:01:41;;;;;;;;;;;;;;;7.14;100.00;95295.88;5107795;28;20223;-68
2024/02/08 01:04:07;;;;;;;;;;;;;;;7.14;100.00;95299.28;5108505;28;19933;-69
2024/02/08 01:06:34;;;;;;;;;;;;;;;7.14;100.00;95291.47;5107725;28;20009;-69
2024/02/08 01:09:00;;;;;;;;;;;;;;;7.12;100.00;95298.72;5107561;28;19948;-69
2024/02/08 01:11:26;;;;;;;;;;;;;;;7.15;100.00;95305.28;5108360;28;20257;-69
2024/02/08 01:13:52;;;;;;;;;;;;;;;7.15;100.00;95305.28;5107583;28;19932;-69
2024/02/08 01:16:17;;;;;;;;;;;;;;;7.13;100.00;95302.91;5107714;28;20032;-70
2024/02/08 01:18:43;;;;;;;;;;;;;;;7.13;100.00;95309.94;5107451;28;19935;-65
2024/02/08 01:21:10;;;;;;;;;;;;;;;7.12;100.00;95303.94;5107384;28;19938;-66
2024/02/08 01:23:37;;;;;;;;;;;;;;;7.12;100.00;95301.34;5089987;28;19942;-65
2024/02/08 01:26:03;;;;;;;;;;;;;;;7.13;100.00;95305.50;5107276;28;19952;-65
2024/02/08 01:28:29;;;;;;;;;;;;;;;7.14;100.00;95307.13;5108054;28;19934;-65
2024/02/08 01:30:55;;;;;;;;;;;;;;;7.14;100.00;95301.91;5107234;28;19932;-65
2024/02/08 01:33:21;;;;;;;;;;;;;;;7.16;100.00;95301.66;5107200;28;20240;-65
2024/02/08 01:35:47;;;;;;;;;;;;;;;7.17;100.00;95308.47;5107135;28;19947;-70
2024/02/08 01:38:16;;;;;;;;;;;;;;;7.18;100.00;95303.03;5107571;28;19941;-69
2024/02/08 01:40:42;;;;;;;;;;;;;;;7.19;100.00;95303.84;5107586;28;19931;-69
2024/02/08 01:43:10;;;;;;;;;;;;;;;7.20;100.00;95302.78;5089005;28;19939;-70
2024/02/08 01:45:41;;;;;;;;;;;;;;;7.21;100.00;95314.81;5107231;28;20239;-69
2024/02/08 01:48:10;;;;;;;;;;;;;;;7.23;100.00;95315.41;5106840;28;19941;-69
2024/02/08 01:50:40;;;;;;;;;;;;;;;7.23;100.00;95300.53;5106836;28;19934;-68
2024/02/08 01:53:08;;;;;;;;;;;;;;;7.23;100.00;95312.78;5107540;28;20240;-74
2024/02/08 01:55:34;;;;;;;;;;;;;;;7.25;100.00;95303.72;5106743;28;19958;-76
2024/02/08 01:58:05;;;;;;;;;;;;;;;7.27;100.00;95308.72;5106559;28;19995;-76
2024/02/08 02:00:36;;;;;;;;;;;;;;;7.28;100.00;95300.66;5106696;28;20233;-76
2024/02/08 02:03:03;;;;;;;;;;;;;;;7.29;100.00;95298.84;5106281;28;19931;-77
2024/02/08 02:05:29;;;;;;;;;;;;;;;7.30;100.00;95292.59;5088530;28;19943;-76
2024/02/08 02:07:57;;;;;;;;;;;;;;;7.31;100.00;95295.00;5107017;28;19948;-77
2024/02/08 02:10:29;;;;;;;;;;;;;;;7.34;100.00;95296.34;5106470;28;19941;-69
2024/02/08 02:12:59;;;;;;;;;;;;;;;7.34;100.00;95298.97;5106480;28;19940;-69
2024/02/08 02:15:31;;;;;;;;;;;;;;;7.35;100.00;95284.09;5106276;28;19949;-73
2024/02/08 02:17:59;;;;;;;;;;;;;;;7.34;100.00;95291.16;5106363;28;20241;-73
2024/02/08 02:20:29;;;;;;;;;;;;;;;7.35;100.00;95287.53;5106245;28;19941;-73
2024/02/08 02:23:03;;;;;;;;;;;;;;;7.37;100.00;95287.28;5106214;28;19940;-73
2024/02/08 02:25:29;;;;;;;;;;;;;;;7.35;100.00;95291.94;5105426;28;19936;-73
2024/02/08 02:27:58;;;;;;;;;;;;;;;7.34;100.00;95287.75;5106722;28;19932;-73
2024/02/08 02:30:28;;;;;;;;;;;;;;;7.34;100.00;95282.53;5106881;28;19936;-67
2024/02/08 02:32:55;;;;;;;;;;;;;;;7.34;100.00;95285.13;5106866;28;19935;-78
2024/02/08 02:35:22;;;;;;;;;;;;;;;7.30;100.00;95279.56;5105886;28;20128;-77
2024/02/08 02:37:50;;;;;;;;;;;;;;;7.32;100.00;95280.13;5106792;28;19948;-78
2024/02/08 02:40:25;;;;;;;;;;;;;;;7.32;100.00;95280.13;5105892;28;19932;-78
2024/02/08 02:42:52;;;;;;;;;;;;;;;7.31;100.00;95281.97;5106423;28;20023;-78
2024/02/08 02:45:23;;;;;;;;;;;;;;;7.32;100.00;95272.31;5105808;28;19933;-77
2024/02/08 02:47:49;;;;;;;;;;;;;;;7.32;100.00;95282.75;5106340;28;20116;-67
2024/02/08 02:50:18;;;;;;;;;;;;;;;7.32;100.00;95272.31;5105764;28;20254;-70
2024/02/08 02:52:47;;;;;;;;;;;;;;;7.34;100.00;95275.50;5105631;28;19934;-71
2024/02/08 02:55:13;;;;;;;;;;;;;;;7.34;100.00;95270.28;5106329;28;19927;-71
2024/02/08 02:57:41;;;;;;;;;;;;;;;7.35;100.00;95278.88;5104511;28;19973;-70
2024/02/08 03:00:20;;;;;;;;;;;;;;;7.35;100.00;95274.50;5106278;28;20198;-71
2024/02/08 03:02:50;;;;;;;;;;;;;;;7.36;100.00;95270.06;5106044;28;19931;-70
2024/02/08 03:05:17;;;;;;;;;;;;;;;7.37;100.00;95275.06;5087458;28;20120;-71
2024/02/08 03:07:44;;;;;;;;;;;;;;;7.37;100.00;95269.84;5105302;28;19935;-70
2024/02/08 03:10:11;;;;;;;;;;;;;;;7.39;100.00;95267.00;5106113;28;19942;-72
2024/02/08 03:12:38;;;;;;;;;;;;;;;7.39;100.00;95262.59;5105284;28;19938;-73
2024/02/08 03:15:08;;;;;;;;;;;;;;;7.40;100.00;95256.34;5104879;28;19938;-71
2024/02/08 03:17:35;;;;;;;;;;;;;;;7.41;100.00;95257.13;5105758;28;19940;-72
2024/02/08 03:20:04;;;;;;;;;;;;;;;7.40;100.00;95261.56;5105148;28;20247;-72
2024/02/08 03:22:34;;;;;;;;;;;;;;;7.41;100.00;95262.34;5105372;28;19930;-72
2024/02/08 03:25:04;;;;;;;;;;;;;;;7.41;100.00;95259.72;5105049;28;19930;-72
2024/02/08 03:27:32;;;;;;;;;;;;;;;7.41;100.00;95260.53;5104955;28;19941;-72
2024/02/08 03:29:58;;;;;;;;;;;;;;;7.41;100.00;95254.50;5104987;28;19926;-72
2024/02/08 03:32:24;;;;;;;;;;;;;;;7.39;100.00;95251.34;5105173;28;20098;-72
2024/02/08 03:34:53;;;;;;;;;;;;;;;7.39;100.00;95246.13;5105698;28;19959;-72
2024/02/08 03:37:20;;;;;;;;;;;;;;;7.38;100.00;95253.16;5104745;28;19952;-72
2024/02/08 03:39:47;;;;;;;;;;;;;;;7.37;100.00;95253.38;5105604;28;19937;-72
2024/02/08 03:42:14;;;;;;;;;;;;;;;7.38;100.00;95247.94;5104705;28;20242;-73
2024/02/08 03:44:39;;;;;;;;;;;;;;;7.39;100.00;95251.34;5105252;28;20218;-65
2024/02/08 03:47:07;;;;;;;;;;;;;;;7.37;100.00;95245.56;5104644;28;19941;-68
2024/02/08 03:49:33;;;;;;;;;;;;;;;7.36;100.00;95249.19;5104612;28;19949;-67
2024/02/08 03:51:59;;;;;;;;;;;;;;;7.37;100.00;95243.75;5105357;28;19926;-67
2024/02/08 03:54:30;;;;;;;;;;;;;;;7.37;100.00;95246.38;5104578;28;19946;-67
2024/02/08 03:57:05;;;;;;;;;;;;;;;7.37;100.00;95254.19;5104746;28;19961;-67
2024/02/08 03:59:40;;;;;;;;;;;;;;;7.37;100.00;95242.94;5105061;28;19942;-67
2024/02/08 04:02:09;;;;;;;;;;;;;;;7.38;100.00;95247.94;5104445;28;19937;-74
2024/02/08 04:04:54;;;;;;;;;;;;;;;7.37;100.00;95240.34;5105247;28;19931;-77
2024/02/08 04:07:22;;;;;;;;;;;;;;;7.35;100.00;95240.59;5104375;28;19932;-77
2024/02/08 04:10:10;;;;;;;;;;;;;;;7.33;100.00;95237.41;5104285;28;19952;-77
2024/02/08 04:53:31;;;;;;;;;;;;;;;7.32;100.00;95234.00;5104974;28;19931;-78
2024/02/08 04:53:55;;;;;;;;;;;;;;;7.34;100.00;95227.78;5104338;28;19943;-65
2024/02/08 04:56:21;;;;;;;;;;;;;;;7.34;100.00;95218.13;5104017;28;19971;-71
2024/02/08 04:58:47;;;;;;;;;;;;;;;7.35;100.00;95213.69;5086659;28;20109;-69
2024/02/08 05:01:13;;;;;;;;;;;;;;;7.37;100.00;95212.47;5085905;28;20142;-78
2024/02/08 05:03:42;;;;;;;;;;;;;;;7.38;100.00;95200.22;5104617;28;19992;-78
2024/02/08 05:06:14;;;;;;;;;;;;;;;7.37;100.00;95201.22;5103736;28;19930;-78
2024/02/08 05:08:41;;;;;;;;;;;;;;;7.37;100.00;95191.59;5103850;28;19950;-78
2024/02/08 05:11:10;;;;;;;;;;;;;;;7.39;100.00;95199.19;5103735;28;19932;-79
2024/02/08 05:13:40;;;;;;;;;;;;;;;7.40;100.00;95208.59;5103707;28;20211;-79
2024/02/08 05:16:06;;;;;;;;;;;;;;;7.41;100.00;95204.97;5103614;28;19944;-69
2024/02/08 05:18:32;;;;;;;;;;;;;;;7.40;100.00;95221.66;5104791;28;19934;-68
2024/02/08 05:20:58;;;;;;;;;;;;;;;7.39;100.00;95214.81;5104431;28;20161;-69
2024/02/08 05:23:27;;;;;;;;;;;;;;;7.38;100.00;95216.66;5103579;28;19934;-69
2024/02/08 05:25:53;;;;;;;;;;;;;;;7.37;100.00;95222.91;5103498;28;19940;-69
2024/02/08 05:28:22;;;;;;;;;;;;;;;7.37;100.00;95222.91;5104074;28;19997;-69
2024/02/08 05:30:49;;;;;;;;;;;;;;;7.38;100.00;95221.06;5103511;28;19936;-69
2024/02/08 05:33:15;;;;;;;;;;;;;;;7.38;100.00;95214.03;5086273;28;19945;-73
2024/02/08 05:35:44;;;;;;;;;;;;;;;7.38;100.00;95208.81;5086169;28;19943;-70
2024/02/08 05:38:10;;;;;;;;;;;;;;;7.39;100.00;95204.41;5105333;28;19935;-71
2024/02/08 05:40:41;;;;;;;;;;;;;;;7.39;100.00;95205.22;5107095;28;20215;-71
2024/02/08 05:43:07;;;;;;;;;;;;;;;7.40;100.00;95204.19;5107857;28;19927;-71
2024/02/08 05:45:33;;;;;;;;;;;;;;;7.40;100.00;95200.78;5107221;28;19934;-71
2024/02/08 05:48:05;;;;;;;;;;;;;;;7.40;100.00;95193.75;5106894;28;20000;-71
2024/02/08 05:50:32;;;;;;;;;;;;;;;7.40;100.00;95209.38;5089419;28;20102;-71
2024/02/08 05:52:58;;;;;;;;;;;;;;;7.41;100.00;95204.97;5107363;28;19929;-73
2024/02/08 05:55:26;;;;;;;;;;;;;;;7.41;100.00;95205.78;5088878;28;19999;-64
2024/02/08 05:57:52;;;;;;;;;;;;;;;7.41;100.00;95211.00;5106502;28;19963;-65
2024/02/08 06:00:45;;;;;;;;;;;;;;;7.41;100.00;95203.16;5106701;28;20214;-65
2024/02/08 06:03:17;;;;;;;;;;;;;;;7.43;100.00;95210.75;5107192;28;19927;-65
2024/02/08 06:05:49;;;;;;;;;;;;;;;7.44;100.00;95215.75;5106646;28;19937;-64
2024/02/08 06:08:25;;;;;;;;;;;;;;;7.46;100.00;95203.25;5106693;28;19962;-65
2024/02/08 06:10:52;;;;;;;;;;;;;;;7.46;100.00;95198.03;5107066;28;19936;-73
2024/02/08 06:13:22;;;;;;;;;;;;;;;7.48;100.00;95214.25;5106455;28;20016;-80
2024/02/08 06:15:50;;;;;;;;;;;;;;;7.49;100.00;95197.56;5106351;28;19949;-80
2024/02/08 06:18:25;;;;;;;;;;;;;;;7.50;100.00;95216.66;5106872;28;19937;-79
2024/02/08 06:21:39;;;;;;;;;;;;;;;7.51;100.00;95213.00;5107166;28;19941;-79
2024/02/08 06:23:45;;;;;;;;;;;;;;;7.51;100.00;95224.22;5098197;28;20241;-79
2024/02/08 06:28:46;;;;;;;;;;;;;;;7.53;100.00;95216.19;5106227;28;19929;-79
2024/02/08 06:31:15;;;;;;;;;;;;;;;7.53;100.00;95222.19;5106979;28;19935;-70
2024/02/08 06:36:27;;;;;;;;;;;;;;;7.54;100.00;95212.56;5106573;28;20247;-67
2024/02/08 06:38:53;;;;;;;;;;;;;;;7.56;100.00;95227.97;5106011;28;19936;-67
2024/02/08 06:44:42;;;;;;;;;;;;;;;7.58;100.00;95210.28;5055379;28;19935;-66
2024/02/08 06:47:17;;;;;;;;;;;;;;;7.58;100.00;95207.66;5105834;28;19935;-68
2024/02/08 07:39:34;;;;;;;;;;;;;;;7.63;100.00;95213.78;5104872;28;19942;-70
2024/02/08 07:42:51;;;;;;;;;;;;;;;7.66;100.00;95210.72;5105384;28;19947;-73
2024/02/08 07:44:54;;;;;;;;;;;;;;;7.70;100.00;95219.66;5094097;28;19941;-79
2024/02/08 07:47:24;;;;;;;;;;;;;;;7.73;100.00;95211.41;5087423;28;19942;-79
2024/02/08 07:49:57;;;;;;;;;;;;;;;7.75;100.00;95213.78;5104635;28;20239;-78
2024/02/08 07:52:24;;;;;;;;;;;;;;;7.76;100.00;95215.34;5104986;28;19930;-79
2024/02/08 07:57:34;;;;;;;;;;;;;;;7.80;100.00;95215.69;5104410;28;19972;-79
2024/02/08 08:00:00;;;;;;;;;;;;;;;7.82;100.00;95217.03;5104505;28;20148;-69
2024/02/08 08:02:29;;;;;;;;;;;;;;;7.86;100.00;95206.94;5103624;28;20128;-65
2024/02/08 08:04:55;;;;;;;;;;;;;;;7.89;100.00;95211.69;5105246;28;19933;-78
2024/02/08 08:07:24;;;;;;;;;;;;;;;7.92;100.00;95211.25;5104629;28;19937;-78
2024/02/08 08:10:06;;;;;;;;;;;;;;;7.95;100.00;95212.59;5104322;28;19950;-78
2024/02/08 08:12:35;;;;;;;;;;;;;;;7.97;100.00;95205.31;5104907;28;20119;-77
2024/02/08 08:19:54;;;;;;;;;;;;;;;8.01;100.00;95211.66;5104221;28;19932;-78
2024/02/08 08:27:47;;;;;;;;;;;;;;;8.06;100.00;95190.88;5076519;28;19935;-69
2024/02/08 08:30:27;;;;;;;;;;;;;;;8.06;100.00;95196.91;5104674;28;19937;-70
2024/02/08 08:35:47;;;;;;;;;;;;;;;8.09;100.00;95193.03;5104136;28;19932;-69
2024/02/08 08:40:49;;;;;;;;;;;;;;;8.09;100.00;95196.44;5104908;28;20114;-69
2024/02/08 08:43:22;;;;;;;;;;;;;;;8.12;100.00;95192.56;5104000;28;20214;-69
2024/02/08 08:45:51;;;;;;;;;;;;;;;8.19;100.00;95197.63;5104559;28;19981;-69
2024/02/08 08:48:18;;;;;;;;;;;;;;;8.22;100.00;95195.34;5103952;28;19939;-70
2024/02/08 08:50:50;;;;;;;;;;;;;;;8.24;100.00;95187.28;5103931;28;19936;-69
2024/02/08 08:53:19;;;;;;;;;;;;;;;8.25;100.00;95187.06;5104197;28;19932;-69
2024/02/08 08:55:49;;;;;;;;;;;;;;;8.24;100.00;95189.91;5103893;28;19932;-70
2024/02/08 08:58:16;;;;;;;;;;;;;;;8.24;100.00;95189.91;5103771;28;20164;-72
2024/02/08 09:00:46;;;;;;;;;;;;;;;8.23;100.00;95190.91;5103875;28;20250;-65
2024/02/08 09:03:25;;;;;;;;;;;;;;;8.25;100.00;95189.69;5103823;28;19932;-65
2024/02/08 09:05:54;;;;;;;;;;;;;;;8.27;100.00;95185.03;5103816;28;19946;-65
2024/02/08 09:08:21;;;;;;;;;;;;;;;8.29;100.00;95197.81;5103729;28;19951;-65
2024/02/08 09:10:49;;;;;;;;;;;;;;;8.30;100.00;95186.38;5103802;28;20099;-65
2024/02/08 09:13:21;;;;;;;;;;;;;;;8.31;100.00;95186.09;5106681;28;20108;-65
2024/02/08 09:16:29;;;;;;;;;;;;;;;8.33;100.00;95183.28;5107681;28;19947;-66
2024/02/08 09:21:32;;;;;;;;;;;;;;;8.45;100.00;95180.63;5108110;28;19930;-71
2024/02/08 09:24:04;;;;;;;;;;;;;;;8.48;100.00;95180.16;5107469;28;20219;-71
2024/02/08 09:26:48;;;;;;;;;;;;;;;8.52;100.00;95181.28;5107371;28;19940;-71
2024/02/08 09:29:15;;;;;;;;;;;;;;;8.55;100.00;95175.59;5107910;28;19942;-71
2024/02/08 09:31:46;;;;;;;;;;;;;;;8.57;100.00;95186.59;5107255;28;19932;-71
2024/02/08 09:34:16;;;;;;;;;;;;;;;8.59;100.00;95181.94;5107887;28;19938;-73
2024/02/08 09:36:43;;;;;;;;;;;;;;;8.63;100.00;95183.03;5108073;28;19944;-71
2024/02/08 09:39:15;;;;;;;;;;;;;;;8.68;100.00;95187.56;5107207;28;19936;-71
2024/02/08 09:41:45;;;;;;;;;;;;;;;8.73;100.00;95177.16;5107205;28;19939;-70
2024/02/08 09:44:11;;;;;;;;;;;;;;;8.78;100.00;95174.66;5107091;28;19960;-71
2024/02/08 09:49:21;;;;;;;;;;;;;;;8.88;100.00;95169.59;5107777;28;19936;-70
2024/02/08 09:51:55;;;;;;;;;;;;;;;8.90;100.00;95167.53;5106184;28;19947;-70
2024/02/08 09:54:28;;;;;;;;;;;;;;;8.93;100.00;95174.09;5107133;28;20211;-71
2024/02/08 09:57:01;;;;;;;;;;;;;;;8.99;100.00;95172.34;5106882;28;19968;-71
2024/02/08 10:00:34;;;;;;;;;;;;;;;9.02;100.00;95167.44;5107371;28;20241;-71
2024/02/08 10:02:23;;;;;;;;;;;;;;;9.08;100.00;95169.09;5096050;28;19943;-71
2024/02/08 10:04:56;;;;;;;;;;;;;;;9.18;100.00;95168.44;5107185;28;20221;-71
2024/02/08 10:07:34;;;;;;;;;;;;;;;9.27;100.00;95167.00;5106939;28;20124;-71
2024/02/08 10:10:14;;;;;;;;;;;;;;;9.32;100.00;95159.25;5106678;28;20131;-70
2024/02/08 10:13:05;;;;;;;;;;;;;;;9.33;100.00;95154.78;5089154;28;20253;-78
2024/02/08 10:15:40;;;;;;;;;;;;;;;9.30;100.00;95163.91;5106485;28;19953;-78
2024/02/08 10:18:22;;;;;;;;;;;;;;;9.30;100.00;95166.53;5106440;28;19953;-78
2024/02/08 10:20:49;;;;;;;;;;;;;;;9.29;100.00;95159.69;5089110;28;20207;-77
2024/02/08 10:23:33;;;;;;;;;;;;;;;9.28;100.00;95158.13;5106226;28;19945;-79
2024/02/08 10:28:46;;;;;;;;;;;;;;;9.28;100.00;95157.31;5106296;28;19940;-69
2024/02/08 10:31:22;;;;;;;;;;;;;;;9.30;100.00;95163.91;5106187;28;19942;-74
2024/02/08 10:33:48;;;;;;;;;;;;;;;9.34;100.00;95151.13;5106138;28;20215;-72
2024/02/08 10:36:18;;;;;;;;;;;;;;;9.40;100.00;95154.63;5106052;28;19980;-73
2024/02/08 10:39:02;;;;;;;;;;;;;;;9.47;100.00;95155.22;5106738;28;20268;-73
2024/02/08 10:41:44;;;;;;;;;;;;;;;9.63;100.00;95156.22;5106244;28;19936;-73
2024/02/08 10:44:17;;;;;;;;;;;;;;;9.79;100.00;95146.72;5106832;28;19937;-73
2024/02/08 10:46:46;;;;;;;;;;;;;;;9.92;100.00;95144.50;5106661;28;19937;-69
2024/02/08 10:49:12;;;;;;;;;;;;;;;10.09;100.00;95139.19;5107691;28;19954;-67
2024/02/08 10:51:43;;;;;;;;;;;;;;;10.31;100.00;95133.94;5088683;28;19941;-67
2024/02/08 10:54:15;;;;;;;;;;;;;;;10.47;100.00;95134.06;5106022;28;20120;-67
2024/02/08 10:56:45;;;;;;;;;;;;;;;10.61;100.00;95127.38;5105707;28;20128;-67
2024/02/08 10:59:13;;;;;;;;;;;;;;;10.67;100.00;95125.59;5106263;28;19990;-67
2024/02/08 11:04:18;;;;;;;;;;;;;;;10.60;100.00;95127.63;5106108;28;19932;-72
2024/02/08 11:06:54;;;;;;;;;;;;;;;10.55;100.00;95116.06;5105521;28;19930;-73
2024/02/08 11:09:27;;;;;;;;;;;;;;;10.49;100.00;95117.03;5105499;28;19948;-71
2024/02/08 11:11:59;;;;;;;;;;;;;;;10.44;100.00;95100.50;5105437;28;19946;-71
2024/02/08 11:14:28;;;;;;;;;;;;;;;10.42;100.00;95105.22;5105661;28;19934;-71
2024/02/08 11:16:54;;;;;;;;;;;;;;;10.44;100.00;95100.50;5105239;28;19937;-71
2024/02/08 11:19:22;;;;;;;;;;;;;;;10.44;100.00;95090.81;5105258;28;19934;-71
2024/02/08 11:21:49;;;;;;;;;;;;;;;10.47;100.00;95090.28;5105223;28;19937;-71
2024/02/08 11:24:27;;;;;;;;;;;;;;;10.47;100.00;95086.88;5105203;28;19939;-73
2024/02/08 11:26:58;;;;;;;;;;;;;;;10.49;100.00;95090.84;5105430;28;19936;-65
2024/02/08 11:29:26;;;;;;;;;;;;;;;10.48;100.00;95086.66;5105596;28;19945;-65
2024/02/08 11:31:55;;;;;;;;;;;;;;;10.46;100.00;95080.09;5086833;28;19949;-65
2024/02/08 11:34:24;;;;;;;;;;;;;;;10.45;100.00;95074.03;5104949;28;19935;-65
2024/02/08 11:36:53;;;;;;;;;;;;;;;10.43;100.00;95078.72;5105234;28;19943;-65
2024/02/08 11:39:30;;;;;;;;;;;;;;;10.42;100.00;95068.53;5104844;28;19928;-66
2024/02/08 11:41:59;;;;;;;;;;;;;;;10.40;100.00;95079.25;5105445;28;19937;-66
2024/02/08 11:44:25;;;;;;;;;;;;;;;10.40;100.00;95068.75;5104865;28;19936;-71
2024/02/08 11:47:00;;;;;;;;;;;;;;;10.42;100.00;95063.28;5105548;28;19934;-71
2024/02/08 11:49:32;;;;;;;;;;;;;;;10.42;100.00;95065.91;5105507;28;19945;-71
2024/02/08 11:52:06;;;;;;;;;;;;;;;10.46;100.00;95072.22;5105453;28;19941;-71
2024/02/08 11:54:37;;;;;;;;;;;;;;;10.53;100.00;95070.94;5105217;28;19996;-71
2024/02/08 11:57:15;;;;;;;;;;;;;;;10.62;100.00;95071.28;5104869;28;19965;-70
2024/02/08 11:59:44;;;;;;;;;;;;;;;10.80;100.00;95064.06;5104597;28;19951;-70
2024/02/08 12:02:11;;;;;;;;;;;;;;;10.95;100.00;95054.44;5105114;28;19943;-70
2024/02/08 12:04:37;;;;;;;;;;;;;;;11.12;100.00;95046.38;5104982;28;20019;-71
2024/02/08 12:07:14;;;;;;;;;;;;;;;11.24;100.00;95035.69;5105049;28;20112;-71
2024/02/08 12:09:40;;;;;;;;;;;;;;;11.35;100.00;95015.53;5104493;28;20145;-71
2024/02/08 12:12:08;;;;;;;;;;;;;;;11.42;100.00;95018.69;5104404;28;19993;-70
2024/02/08 12:14:39;;;;;;;;;;;;;;;11.46;100.00;95016.34;5104330;28;19934;-71
2024/02/08 12:17:06;;;;;;;;;;;;;;;11.56;100.00;95032.91;5104829;28;19935;-70
2024/02/08 12:19:32;;;;;;;;;;;;;;;11.75;100.00;95027.97;5104861;28;20237;-71
2024/02/08 12:21:59;;;;;;;;;;;;;;;11.92;100.00;95016.47;5104341;28;19941;-79
2024/02/08 12:24:25;;;;;;;;;;;;;;;12.00;100.00;95041.44;5104537;28;19943;-79
2024/02/08 12:26:55;;;;;;;;;;;;;;;11.99;100.00;95045.91;5104299;28;19934;-79
2024/02/08 12:29:24;;;;;;;;;;;;;;;11.95;100.00;95010.72;5104157;28;19940;-78
2024/02/08 12:31:54;;;;;;;;;;;;;;;11.87;100.00;95027.72;5104751;28;19999;-78
2024/02/08 12:34:34;;;;;;;;;;;;;;;11.78;100.00;95016.97;5104729;28;19934;-79
2024/02/08 12:37:05;;;;;;;;;;;;;;;11.72;100.00;95009.34;5104655;28;19939;-73
2024/02/08 12:39:34;;;;;;;;;;;;;;;11.74;100.00;95010.66;5104905;28;19944;-66
2024/02/08 12:42:00;;;;;;;;;;;;;;;11.85;100.00;95002.78;5104068;28;19938;-66
2024/02/08 12:44:26;;;;;;;;;;;;;;;12.04;100.00;95011.75;5104074;28;19935;-66
2024/02/08 12:46:53;;;;;;;;;;;;;;;12.19;100.00;94995.97;5103987;28;19943;-66
2024/02/08 12:49:19;;;;;;;;;;;;;;;12.39;100.00;94994.41;5108077;28;19936;-66
2024/02/08 12:51:45;;;;;;;;;;;;;;;12.55;100.00;95008.31;5108100;28;19948;-66
2024/02/08 12:54:14;;;;;;;;;;;;;;;12.65;100.00;94997.00;5108287;28;19945;-66
2024/02/08 12:56:40;;;;;;;;;;;;;;;12.59;100.00;94977.81;5107871;28;19968;-67
2024/02/08 12:59:06;;;;;;;;;;;;;;;12.44;100.00;94983.09;5107877;28;20137;-68
2024/02/08 13:01:39;;;;;;;;;;;;;;;12.30;100.00;94983.63;5108504;28;19943;-67
2024/02/08 13:04:06;;;;;;;;;;;;;;;12.31;100.00;94981.81;5107637;28;19949;-68
2024/02/08 13:06:32;;;;;;;;;;;;;;;12.26;100.00;94972.06;5108083;28;19958;-68
2024/02/08 13:09:26;;;;;;;;;;;;;;;12.21;100.00;94966.81;5107539;28;20243;-67
2024/02/08 13:12:14;;;;;;;;;;;;;;;12.19;100.00;94961.81;5107389;28;19946;-68
2024/02/08 13:14:48;;;;;;;;;;;;;;;12.19;100.00;94969.69;5107572;28;19935;-78
2024/02/08 13:17:20;;;;;;;;;;;;;;;12.14;100.00;94955.81;5108388;28;19945;-74
2024/02/08 13:19:47;;;;;;;;;;;;;;;12.04;100.00;94961.84;5108070;28;19955;-74
2024/02/08 13:22:14;;;;;;;;;;;;;;;12.01;100.00;94967.63;5107519;28;19939;-74
2024/02/08 13:24:40;;;;;;;;;;;;;;;12.10;100.00;94970.50;5107494;28;19939;-74
2024/02/08 13:27:06;;;;;;;;;;;;;;;12.20;100.00;94946.88;5107458;28;20002;-74
2024/02/08 13:29:34;;;;;;;;;;;;;;;12.24;100.00;94928.72;5089355;28;19936;-74
2024/02/08 13:32:01;;;;;;;;;;;;;;;12.23;100.00;94940.28;5107850;28;19937;-74
2024/02/08 13:34:27;;;;;;;;;;;;;;;12.20;100.00;94941.59;5107804;28;19932;-71
2024/02/08 13:36:53;;;;;;;;;;;;;;;12.11;100.00;94922.16;5107271;28;19943;-68
2024/02/08 13:39:25;;;;;;;;;;;;;;;12.01;100.00;94946.63;5107886;28;20128;-68
2024/02/08 13:41:51;;;;;;;;;;;;;;;11.93;100.00;94955.81;5107212;28;19928;-68
2024/02/08 13:44:20;;;;;;;;;;;;;;;11.90;100.00;94947.66;5107154;28;19954;-69
2024/02/08 13:46:48;;;;;;;;;;;;;;;11.79;100.00;94944.19;5107100;28;19942;-68
2024/02/08 13:49:15;;;;;;;;;;;;;;;11.75;100.00;94962.31;5107861;28;19932;-68
2024/02/08 13:51:44;;;;;;;;;;;;;;;11.73;100.00;94956.53;5107545;28;19946;-72
2024/02/08 13:54:13;;;;;;;;;;;;;;;11.72;100.00;94962.84;5106996;28;19937;-69
2024/02/08 13:56:40;;;;;;;;;;;;;;;11.72;100.00;94954.19;5106732;28;19960;-68
2024/02/08 13:59:06;;;;;;;;;;;;;;;11.73;100.00;94961.00;5107090;28;19953;-68
2024/02/08 14:01:32;;;;;;;;;;;;;;;11.77;100.00;94959.44;5106975;28;19935;-68
2024/02/08 14:03:58;;;;;;;;;;;;;;;11.81;100.00;94962.34;5106762;28;19962;-68
2024/02/08 14:06:25;;;;;;;;;;;;;;;11.81;100.00;94963.13;5106769;28;19938;-69
2024/02/08 14:08:54;;;;;;;;;;;;;;;11.81;100.00;94963.13;5107298;28;20133;-70
2024/02/08 14:11:21;;;;;;;;;;;;;;;11.80;100.00;94958.94;5107215;28;20112;-74
2024/02/08 14:13:50;;;;;;;;;;;;;;;11.69;100.00;94963.34;5106588;28;19937;-67
2024/02/08 14:16:17;;;;;;;;;;;;;;;11.63;100.00;94958.38;5106537;28;19934;-67
2024/02/08 14:18:48;;;;;;;;;;;;;;;11.59;100.00;94973.88;5106424;28;19963;-67
2024/02/08 14:21:20;;;;;;;;;;;;;;;11.50;100.00;94976.19;5107071;28;19944;-67
2024/02/08 14:23:49;;;;;;;;;;;;;;;11.45;100.00;94978.81;5088510;28;19938;-67
2024/02/08 14:28:46;;;;;;;;;;;;;;;11.43;100.00;94973.03;5106330;28;19936;-76
2024/02/08 14:31:12;;;;;;;;;;;;;;;11.45;100.00;94970.94;5106240;28;19930;-71
2024/02/08 14:33:41;;;;;;;;;;;;;;;11.45;100.00;94968.31;5106138;28;19943;-70
2024/02/08 14:36:08;;;;;;;;;;;;;;;11.46;100.00;94966.47;5106617;28;20214;-71
2024/02/08 14:38:40;;;;;;;;;;;;;;;11.46;100.00;94956.75;5106025;28;19950;-70
2024/02/08 14:41:06;;;;;;;;;;;;;;;11.44;100.00;94948.34;5106073;28;19936;-71
2024/02/08 14:43:33;;;;;;;;;;;;;;;11.35;100.00;94947.28;5106010;28;19930;-71
2024/02/08 14:46:02;;;;;;;;;;;;;;;11.28;100.00;94944.13;5106038;28;20131;-73
2024/02/08 14:48:28;;;;;;;;;;;;;;;11.22;100.00;94953.81;5106422;28;20229;-71
2024/02/08 14:53:44;;;;;;;;;;;;;;;11.12;100.00;94953.78;5105839;28;19933;-71
2024/02/08 14:56:18;;;;;;;;;;;;;;;11.06;100.00;94939.84;5106328;28;19942;-71
2024/02/08 14:59:09;;;;;;;;;;;;;;;11.06;100.00;94936.44;5105900;28;19958;-71
2024/02/08 15:01:38;;;;;;;;;;;;;;;11.02;100.00;94925.69;5106208;28;19950;-71
2024/02/08 15:04:15;;;;;;;;;;;;;;;10.97;100.00;94918.59;5105627;28;20024;-75
2024/02/08 15:07:06;;;;;;;;;;;;;;;10.93;100.00;94908.88;5105779;28;19935;-74